Messwerte Paramaribo

Temperatur

Temperatur
°C
1638370800 12.00 12.00 29
1638374400 13.00 13.00 30
1638378000 14.00 14.00 29
1638381600 15.00 15.00 29
1638385200 16.00 16.00 29
1638388800 17.00 17.00 27
1638392400 18.00 18.00 27
1638396000 19.00 19.00 27
1638399600 20.00 20.00
1638403200 21.00 21.00 26
1638406800 22.00 22.00
1638410400 23.00 23.00
1638414000 0.00 0.00
1638417600 1.00 1.00
1638421200 2.00 2.00
1638424800 3.00 3.00
1638428400 4.00 4.00
1638432000 5.00 5.00
1638435600 6.00 6.00 24
1638439200 7.00 7.00 24
1638442800 8.00 8.00 25
1638446400 9.00 9.00 26
1638450000 10.00 10.00 29
1638453600 11.00 11.00 30

Aktuellste Messwerte

Wettercharakter
Wetter: wechselnd bewölkt
Temperatur
30 °C
Feuchtigkeit
70 %
Wind
15 km/hWindrichtung: Südost
Luftdruck
1012 hPa
Messzeit: 2. Dezember 2021, 11.00Datenquelle: METAR

Weitere Messstationen in der Nähe

Messstation Temperatur Entfernung
Johan A. Pengel 30 °C 44 km
Cayenne - 331 km
Georgetown 26 °C 347 km

Wind

Windrichtung Böen Mittelwind
° km/h km/h
1638370800 12.00 11.00 - 12.00 90° 15
1638374400 13.00 12.00 - 13.00 150° 20
1638378000 14.00 13.00 - 14.00 50° 20
1638381600 15.00 14.00 - 15.00 40° 20
1638385200 16.00 15.00 - 16.00 50° 20
1638388800 17.00 16.00 - 17.00 60° 15
1638392400 18.00 17.00 - 18.00 80° 10
1638396000 19.00 18.00 - 19.00 60° 10
1638399600 20.00 19.00 - 20.00
1638403200 21.00 20.00 - 21.00 50° 5
1638406800 22.00 21.00 - 22.00
1638410400 23.00 22.00 - 23.00
1638414000 0.00 23.00 - 0.00
1638417600 1.00 0.00 - 1.00
1638421200 2.00 1.00 - 2.00
1638424800 3.00 2.00 - 3.00
1638428400 4.00 3.00 - 4.00
1638432000 5.00 4.00 - 5.00
1638435600 6.00 5.00 - 6.00 0
1638439200 7.00 6.00 - 7.00 140° 10
1638442800 8.00 7.00 - 8.00 0
1638446400 9.00 8.00 - 9.00 160° 5
1638450000 10.00 9.00 - 10.00 110° 15
1638453600 11.00 10.00 - 11.00 140° 15

Ihre Wetterstation

Fehlt Ihre Wetterstation auf unserem Portal?

Schreiben Sie an network@meteonews.ch

Klima

Wann ist es am wärmsten? Wann regnet es am wenigsten? Unsere Klimadaten geben Auskunft.